sensor_id;sensor_type;location;lat;lon;timestamp;pressure;altitude;pressure_sealevel;temperature;humidity
21102;BME280;10709;49.006;12.100;2023-03-25T00:01:06;48859.66;;;-146.00;79.14
21102;BME280;10709;49.006;12.100;2023-03-25T00:03:40;48867.50;;;-146.00;79.16
21102;BME280;10709;49.006;12.100;2023-03-25T00:06:16;48832.22;;;-146.00;78.95
21102;BME280;10709;49.006;12.100;2023-03-25T00:08:43;48800.88;;;-146.00;78.85
21102;BME280;10709;49.006;12.100;2023-03-25T00:11:09;48822.44;;;-146.00;78.94
21102;BME280;10709;49.006;12.100;2023-03-25T00:13:36;48851.81;;;-146.00;78.97
21102;BME280;10709;49.006;12.100;2023-03-25T00:16:03;48816.56;;;-146.00;78.97
21102;BME280;10709;49.006;12.100;2023-03-25T00:18:30;48832.22;;;-146.00;79.21
21102;BME280;10709;49.006;12.100;2023-03-25T00:21:01;48847.91;;;-146.00;79.07
21102;BME280;10709;49.006;12.100;2023-03-25T00:23:29;48840.06;;;-146.00;79.06
21102;BME280;10709;49.006;12.100;2023-03-25T00:25:56;48844.00;;;-146.00;79.05
21102;BME280;10709;49.006;12.100;2023-03-25T00:28:32;48855.75;;;-146.00;79.03
21102;BME280;10709;49.006;12.100;2023-03-25T00:31:05;48826.34;;;-146.00;78.82
21102;BME280;10709;49.006;12.100;2023-03-25T00:33:32;48840.06;;;-146.00;79.00
21102;BME280;10709;49.006;12.100;2023-03-25T00:36:01;48851.81;;;-146.00;79.21
21102;BME280;10709;49.006;12.100;2023-03-25T00:38:31;48816.56;;;-146.00;79.48
21102;BME280;10709;49.006;12.100;2023-03-25T00:41:13;48847.91;;;-146.00;79.27
21102;BME280;10709;49.006;12.100;2023-03-25T00:43:39;48830.28;;;-146.00;79.62
21102;BME280;10709;49.006;12.100;2023-03-25T00:46:06;48877.28;;;-146.00;79.38
21102;BME280;10709;49.006;12.100;2023-03-25T00:48:33;48871.41;;;-146.00;79.56
21102;BME280;10709;49.006;12.100;2023-03-25T00:51:00;48847.91;;;-146.00;79.70
21102;BME280;10709;49.006;12.100;2023-03-25T00:53:33;48847.91;;;-146.00;79.31
21102;BME280;10709;49.006;12.100;2023-03-25T00:56:00;48883.16;;;-146.00;79.55
21102;BME280;10709;49.006;12.100;2023-03-25T00:58:26;48822.44;;;-146.00;79.59
21102;BME280;10709;49.006;12.100;2023-03-25T01:00:54;48859.66;;;-146.00;79.56
21102;BME280;10709;49.006;12.100;2023-03-25T01:03:23;48855.75;;;-146.00;79.78
21102;BME280;10709;49.006;12.100;2023-03-25T01:05:50;48855.75;;;-146.00;79.77
21102;BME280;10709;49.006;12.100;2023-03-25T01:08:20;48867.50;;;-146.00;80.47
21102;BME280;10709;49.006;12.100;2023-03-25T01:10:52;48867.50;;;-146.00;80.86
21102;BME280;10709;49.006;12.100;2023-03-25T01:13:20;48847.91;;;-146.00;80.78
21102;BME280;10709;49.006;12.100;2023-03-25T01:15:46;48883.16;;;-146.00;81.15
21102;BME280;10709;49.006;12.100;2023-03-25T01:18:13;48871.41;;;-146.00;81.64
21102;BME280;10709;49.006;12.100;2023-03-25T01:20:40;48908.63;;;-146.00;83.38
21102;BME280;10709;49.006;12.100;2023-03-25T01:23:06;48900.78;;;-146.00;83.75
21102;BME280;10709;49.006;12.100;2023-03-25T01:25:35;48947.81;;;-146.00;84.82
21102;BME280;10709;49.006;12.100;2023-03-25T01:28:02;48949.78;;;-146.00;84.84
21102;BME280;10709;49.006;12.100;2023-03-25T01:30:29;48965.44;;;-146.00;85.40
21102;BME280;10709;49.006;12.100;2023-03-25T01:32:56;48959.56;;;-146.00;85.16
21102;BME280;10709;49.006;12.100;2023-03-25T01:35:22;49008.53;;;-146.00;86.13
21102;BME280;10709;49.006;12.100;2023-03-25T01:37:49;48988.94;;;-146.00;87.07
21102;BME280;10709;49.006;12.100;2023-03-25T01:40:18;48977.19;;;-146.00;87.69
21102;BME280;10709;49.006;12.100;2023-03-25T01:42:44;48977.19;;;-146.00;87.94
21102;BME280;10709;49.006;12.100;2023-03-25T01:45:23;49008.53;;;-146.00;89.47
21102;BME280;10709;49.006;12.100;2023-03-25T01:47:55;49055.56;;;-146.00;90.84
21102;BME280;10709;49.006;12.100;2023-03-25T01:50:27;49020.31;;;-146.00;91.16
21102;BME280;10709;49.006;12.100;2023-03-25T01:52:56;49020.31;;;-146.00;91.79
21102;BME280;10709;49.006;12.100;2023-03-25T01:55:24;49032.06;;;-146.00;91.92
21102;BME280;10709;49.006;12.100;2023-03-25T01:57:53;48979.16;;;-146.00;93.25
21102;BME280;10709;49.006;12.100;2023-03-25T02:00:23;49024.22;;;-146.00;92.59
21102;BME280;10709;49.006;12.100;2023-03-25T02:02:53;49004.63;;;-146.00;91.97
21102;BME280;10709;49.006;12.100;2023-03-25T02:05:58;49020.31;;;-146.00;91.82
21102;BME280;10709;49.006;12.100;2023-03-25T02:08:26;49016.38;;;-146.00;91.79
21102;BME280;10709;49.006;12.100;2023-03-25T02:10:53;49000.72;;;-146.00;90.57
21102;BME280;10709;49.006;12.100;2023-03-25T02:13:20;48994.84;;;-146.00;90.95
21102;BME280;10709;49.006;12.100;2023-03-25T02:16:15;49016.38;;;-146.00;91.08
21102;BME280;10709;49.006;12.100;2023-03-25T02:22:00;49014.41;;;-146.00;91.90
21102;BME280;10709;49.006;12.100;2023-03-25T02:27:36;49016.38;;;-146.00;92.50
21102;BME280;10709;49.006;12.100;2023-03-25T02:30:40;49004.63;;;-146.00;91.83
21102;BME280;10709;49.006;12.100;2023-03-25T02:33:27;48992.88;;;-146.00;92.32
21102;BME280;10709;49.006;12.100;2023-03-25T02:38:58;49012.47;;;-146.00;92.25
21102;BME280;10709;49.006;12.100;2023-03-25T02:44:36;49032.06;;;-146.00;92.48
21102;BME280;10709;49.006;12.100;2023-03-25T02:47:10;49014.41;;;-146.00;93.23
21102;BME280;10709;49.006;12.100;2023-03-25T02:49:45;49012.47;;;-146.00;93.07
21102;BME280;10709;49.006;12.100;2023-03-25T02:52:16;48981.13;;;-146.00;93.27
21102;BME280;10709;49.006;12.100;2023-03-25T02:54:48;49008.53;;;-146.00;93.15
21102;BME280;10709;49.006;12.100;2023-03-25T02:57:18;49020.31;;;-146.00;92.65
21102;BME280;10709;49.006;12.100;2023-03-25T02:59:47;49000.72;;;-146.00;92.42
21102;BME280;10709;49.006;12.100;2023-03-25T03:02:16;49008.53;;;-146.00;92.11
21102;BME280;10709;49.006;12.100;2023-03-25T03:04:48;49016.38;;;-146.00;91.89
21102;BME280;10709;49.006;12.100;2023-03-25T03:10:04;49039.88;;;-146.00;90.05
21102;BME280;10709;49.006;12.100;2023-03-25T03:12:54;49016.38;;;-146.00;89.43
21102;BME280;10709;49.006;12.100;2023-03-25T03:18:21;49012.47;;;-146.00;89.26
21102;BME280;10709;49.006;12.100;2023-03-25T03:21:28;48996.78;;;-146.00;89.51
21102;BME280;10709;49.006;12.100;2023-03-25T03:24:26;49024.22;;;-146.00;89.53
21102;BME280;10709;49.006;12.100;2023-03-25T03:27:00;48994.84;;;-146.00;88.93
21102;BME280;10709;49.006;12.100;2023-03-25T03:29:38;49016.38;;;-146.00;89.31
21102;BME280;10709;49.006;12.100;2023-03-25T03:32:12;48988.94;;;-146.00;88.56
21102;BME280;10709;49.006;12.100;2023-03-25T03:34:58;48994.84;;;-146.00;88.67
21102;BME280;10709;49.006;12.100;2023-03-25T03:37:33;48992.88;;;-146.00;87.93
21102;BME280;10709;49.006;12.100;2023-03-25T03:40:08;49004.63;;;-146.00;87.26
21102;BME280;10709;49.006;12.100;2023-03-25T03:42:44;49006.59;;;-146.00;87.16
21102;BME280;10709;49.006;12.100;2023-03-25T03:45:18;48992.88;;;-146.00;86.20
21102;BME280;10709;49.006;12.100;2023-03-25T03:47:51;48992.88;;;-146.00;86.06
21102;BME280;10709;49.006;12.100;2023-03-25T03:50:23;48992.88;;;-146.00;86.28
21102;BME280;10709;49.006;12.100;2023-03-25T03:53:07;48949.78;;;-146.00;85.96
21102;BME280;10709;49.006;12.100;2023-03-25T03:55:42;48981.13;;;-146.00;85.62
21102;BME280;10709;49.006;12.100;2023-03-25T03:58:15;48975.25;;;-146.00;84.86
21102;BME280;10709;49.006;12.100;2023-03-25T04:00:51;48961.53;;;-146.00;84.88
21102;BME280;10709;49.006;12.100;2023-03-25T04:03:27;48949.78;;;-146.00;84.78
21102;BME280;10709;49.006;12.100;2023-03-25T04:06:23;48996.78;;;-146.00;84.42
21102;BME280;10709;49.006;12.100;2023-03-25T04:08:55;48926.25;;;-146.00;84.38
21102;BME280;10709;49.006;12.100;2023-03-25T04:11:30;48983.06;;;-146.00;84.69
21102;BME280;10709;49.006;12.100;2023-03-25T04:13:59;48977.19;;;-146.00;84.51
21102;BME280;10709;49.006;12.100;2023-03-25T04:16:28;48988.94;;;-146.00;84.82
21102;BME280;10709;49.006;12.100;2023-03-25T04:18:54;48969.38;;;-146.00;84.72
21102;BME280;10709;49.006;12.100;2023-03-25T04:21:23;48975.25;;;-146.00;85.43
21102;BME280;10709;49.006;12.100;2023-03-25T04:23:50;48957.59;;;-146.00;86.05
21102;BME280;10709;49.006;12.100;2023-03-25T04:26:17;48973.28;;;-146.00;85.92
21102;BME280;10709;49.006;12.100;2023-03-25T04:28:44;48975.25;;;-146.00;85.88
21102;BME280;10709;49.006;12.100;2023-03-25T04:31:13;48988.94;;;-146.00;86.25
21102;BME280;10709;49.006;12.100;2023-03-25T04:33:44;48973.28;;;-146.00;86.81
21102;BME280;10709;49.006;12.100;2023-03-25T04:36:14;48992.88;;;-146.00;87.08
21102;BME280;10709;49.006;12.100;2023-03-25T04:38:41;48985.03;;;-146.00;86.61
21102;BME280;10709;49.006;12.100;2023-03-25T04:41:11;48961.53;;;-146.00;86.69
21102;BME280;10709;49.006;12.100;2023-03-25T04:43:39;49045.78;;;-146.00;86.84
21102;BME280;10709;49.006;12.100;2023-03-25T04:46:05;49016.38;;;-146.00;87.28
21102;BME280;10709;49.006;12.100;2023-03-25T04:48:34;48988.94;;;-146.00;86.97
21102;BME280;10709;49.006;12.100;2023-03-25T04:51:07;49012.47;;;-146.00;87.98
21102;BME280;10709;49.006;12.100;2023-03-25T04:53:35;49008.53;;;-146.00;87.70
21102;BME280;10709;49.006;12.100;2023-03-25T04:56:02;49020.31;;;-146.00;88.05
21102;BME280;10709;49.006;12.100;2023-03-25T04:58:30;49004.63;;;-146.00;88.23
21102;BME280;10709;49.006;12.100;2023-03-25T05:00:58;48985.03;;;-146.00;88.31
21102;BME280;10709;49.006;12.100;2023-03-25T05:03:32;48988.94;;;-146.00;88.10
21102;BME280;10709;49.006;12.100;2023-03-25T05:05:59;48981.13;;;-146.00;87.89
21102;BME280;10709;49.006;12.100;2023-03-25T05:08:25;49012.47;;;-146.00;88.17
21102;BME280;10709;49.006;12.100;2023-03-25T05:10:54;48992.88;;;-146.00;87.91
21102;BME280;10709;49.006;12.100;2023-03-25T05:13:20;48992.88;;;-146.00;87.79
21102;BME280;10709;49.006;12.100;2023-03-25T05:15:46;49012.47;;;-146.00;87.21
21102;BME280;10709;49.006;12.100;2023-03-25T05:18:14;48996.78;;;-146.00;87.34
21102;BME280;10709;49.006;12.100;2023-03-25T05:20:43;49000.72;;;-146.00;86.85
21102;BME280;10709;49.006;12.100;2023-03-25T05:23:12;49020.31;;;-146.00;86.91
21102;BME280;10709;49.006;12.100;2023-03-25T05:25:41;49022.25;;;-146.00;87.13
21102;BME280;10709;49.006;12.100;2023-03-25T05:28:08;48992.88;;;-146.00;86.75
21102;BME280;10709;49.006;12.100;2023-03-25T05:30:40;49004.63;;;-146.00;86.35
21102;BME280;10709;49.006;12.100;2023-03-25T05:33:08;48973.28;;;-146.00;85.96
21102;BME280;10709;49.006;12.100;2023-03-25T05:35:36;48981.13;;;-146.00;85.57
21102;BME280;10709;49.006;12.100;2023-03-25T05:38:04;48981.13;;;-146.00;85.16
21102;BME280;10709;49.006;12.100;2023-03-25T05:40:31;48934.09;;;-146.00;83.99
21102;BME280;10709;49.006;12.100;2023-03-25T05:42:58;48957.59;;;-146.00;83.99
21102;BME280;10709;49.006;12.100;2023-03-25T05:45:25;48926.25;;;-146.00;83.84
21102;BME280;10709;49.006;12.100;2023-03-25T05:47:51;48953.69;;;-146.00;83.30
21102;BME280;10709;49.006;12.100;2023-03-25T05:50:17;48951.72;;;-146.00;83.40
21102;BME280;10709;49.006;12.100;2023-03-25T05:52:45;48914.50;;;-146.00;83.25
21102;BME280;10709;49.006;12.100;2023-03-25T05:55:17;48957.59;;;-146.00;83.28
21102;BME280;10709;49.006;12.100;2023-03-25T05:57:46;48922.34;;;-146.00;82.73
21102;BME280;10709;49.006;12.100;2023-03-25T06:00:15;48902.75;;;-146.00;82.10
21102;BME280;10709;49.006;12.100;2023-03-25T06:02:41;48914.50;;;-146.00;81.91
21102;BME280;10709;49.006;12.100;2023-03-25T06:05:10;48875.34;;;-146.00;81.04
21102;BME280;10709;49.006;12.100;2023-03-25T06:07:40;48885.13;;;-146.00;80.57
21102;BME280;10709;49.006;12.100;2023-03-25T06:10:09;48853.78;;;-146.00;80.29
21102;BME280;10709;49.006;12.100;2023-03-25T06:12:36;48855.75;;;-146.00;80.34
21102;BME280;10709;49.006;12.100;2023-03-25T06:15:08;48851.81;;;-146.00;79.95
21102;BME280;10709;49.006;12.100;2023-03-25T06:17:35;48867.50;;;-146.00;79.99
21102;BME280;10709;49.006;12.100;2023-03-25T06:20:08;48894.91;;;-146.00;79.49
21102;BME280;10709;49.006;12.100;2023-03-25T06:22:42;48851.81;;;-146.00;79.26
21102;BME280;10709;49.006;12.100;2023-03-25T06:25:12;48828.31;;;-146.00;78.73
21102;BME280;10709;49.006;12.100;2023-03-25T06:27:38;48838.09;;;-146.00;78.75
21102;BME280;10709;49.006;12.100;2023-03-25T06:30:10;48812.63;;;-146.00;78.38
21102;BME280;10709;49.006;12.100;2023-03-25T06:32:37;48806.75;;;-146.00;78.57
21102;BME280;10709;49.006;12.100;2023-03-25T06:35:05;48808.72;;;-146.00;78.38
21102;BME280;10709;49.006;12.100;2023-03-25T06:37:34;48828.31;;;-146.00;78.13
21102;BME280;10709;49.006;12.100;2023-03-25T06:40:01;48808.72;;;-146.00;77.81
21102;BME280;10709;49.006;12.100;2023-03-25T06:42:31;48820.47;;;-146.00;77.91
21102;BME280;10709;49.006;12.100;2023-03-25T06:44:57;48847.91;;;-146.00;77.51
21102;BME280;10709;49.006;12.100;2023-03-25T06:47:24;48832.22;;;-146.00;77.23
21102;BME280;10709;49.006;12.100;2023-03-25T06:49:51;48773.47;;;-146.00;76.26
21102;BME280;10709;49.006;12.100;2023-03-25T06:52:17;48828.31;;;-146.00;76.04
21102;BME280;10709;49.006;12.100;2023-03-25T06:54:44;48789.13;;;-146.00;76.09
21102;BME280;10709;49.006;12.100;2023-03-25T06:57:10;48765.63;;;-146.00;75.66
21102;BME280;10709;49.006;12.100;2023-03-25T06:59:37;48802.84;;;-146.00;75.19
21102;BME280;10709;49.006;12.100;2023-03-25T07:02:04;48769.53;;;-146.00;74.54
21102;BME280;10709;49.006;12.100;2023-03-25T07:04:31;48796.97;;;-146.00;73.51
21102;BME280;10709;49.006;12.100;2023-03-25T07:06:57;48777.38;;;-146.00;73.57
21102;BME280;10709;49.006;12.100;2023-03-25T07:09:24;48793.06;;;-146.00;73.24
21102;BME280;10709;49.006;12.100;2023-03-25T07:11:50;48746.03;;;-146.00;73.67
21102;BME280;10709;49.006;12.100;2023-03-25T07:14:16;48769.53;;;-146.00;73.83
21102;BME280;10709;49.006;12.100;2023-03-25T07:16:43;48781.31;;;-146.00;73.23
21102;BME280;10709;49.006;12.100;2023-03-25T07:19:10;48789.13;;;-146.00;73.64
21102;BME280;10709;49.006;12.100;2023-03-25T07:21:36;48775.41;;;-146.00;73.00
21102;BME280;10709;49.006;12.100;2023-03-25T07:24:03;48806.75;;;-146.00;73.07
21102;BME280;10709;49.006;12.100;2023-03-25T07:26:29;48769.53;;;-146.00;73.53
21102;BME280;10709;49.006;12.100;2023-03-25T07:28:55;48785.22;;;-146.00;72.85
21102;BME280;10709;49.006;12.100;2023-03-25T07:31:22;48775.41;;;-146.00;72.34
21102;BME280;10709;49.006;12.100;2023-03-25T07:33:49;48767.59;;;-146.00;72.68
21102;BME280;10709;49.006;12.100;2023-03-25T07:36:16;48753.88;;;-146.00;71.62
21102;BME280;10709;49.006;12.100;2023-03-25T07:38:43;48753.88;;;-146.00;71.85
21102;BME280;10709;49.006;12.100;2023-03-25T07:41:12;48746.03;;;-146.00;71.34
21102;BME280;10709;49.006;12.100;2023-03-25T07:43:39;48771.50;;;-146.00;71.69
21102;BME280;10709;49.006;12.100;2023-03-25T07:46:05;48773.47;;;-146.00;71.23
21102;BME280;10709;49.006;12.100;2023-03-25T07:48:32;48746.03;;;-146.00;70.27
21102;BME280;10709;49.006;12.100;2023-03-25T07:50:58;48757.78;;;-146.00;69.90
21102;BME280;10709;49.006;12.100;2023-03-25T07:53:25;48765.63;;;-146.00;69.52
21102;BME280;10709;49.006;12.100;2023-03-25T07:55:52;48765.63;;;-146.00;69.55
21102;BME280;10709;49.006;12.100;2023-03-25T07:58:19;48753.88;;;-146.00;70.24
21102;BME280;10709;49.006;12.100;2023-03-25T08:00:45;48742.13;;;-146.00;69.47
21102;BME280;10709;49.006;12.100;2023-03-25T08:03:13;48757.78;;;-146.00;68.80
21102;BME280;10709;49.006;12.100;2023-03-25T08:05:45;48738.19;;;-146.00;69.23
21102;BME280;10709;49.006;12.100;2023-03-25T08:08:12;48767.59;;;-146.00;68.13
21102;BME280;10709;49.006;12.100;2023-03-25T08:10:43;48767.59;;;-146.00;68.01
21102;BME280;10709;49.006;12.100;2023-03-25T08:13:10;48738.19;;;-146.00;68.59
21102;BME280;10709;49.006;12.100;2023-03-25T08:15:37;48773.47;;;-146.00;68.81
21102;BME280;10709;49.006;12.100;2023-03-25T08:18:05;48738.19;;;-146.00;68.70
21102;BME280;10709;49.006;12.100;2023-03-25T08:20:33;48724.50;;;-146.00;68.85
21102;BME280;10709;49.006;12.100;2023-03-25T08:22:59;48742.13;;;-146.00;68.83
21102;BME280;10709;49.006;12.100;2023-03-25T08:25:26;48738.19;;;-146.00;68.51
21102;BME280;10709;49.006;12.100;2023-03-25T08:27:53;48765.63;;;-146.00;68.47
21102;BME280;10709;49.006;12.100;2023-03-25T08:30:20;48777.38;;;-146.00;68.60
21102;BME280;10709;49.006;12.100;2023-03-25T08:32:47;48746.03;;;-146.00;67.44
21102;BME280;10709;49.006;12.100;2023-03-25T08:35:21;48746.03;;;-146.00;67.94
21102;BME280;10709;49.006;12.100;2023-03-25T08:37:49;48773.47;;;-146.00;68.20
21102;BME280;10709;49.006;12.100;2023-03-25T08:40:15;48761.72;;;-146.00;68.46
21102;BME280;10709;49.006;12.100;2023-03-25T08:42:42;48738.19;;;-146.00;66.98
21102;BME280;10709;49.006;12.100;2023-03-25T08:45:10;48738.19;;;-146.00;67.42
21102;BME280;10709;49.006;12.100;2023-03-25T08:47:37;48761.72;;;-146.00;67.58
21102;BME280;10709;49.006;12.100;2023-03-25T08:50:03;48742.13;;;-146.00;67.81
21102;BME280;10709;49.006;12.100;2023-03-25T08:52:30;48773.47;;;-146.00;66.83
21102;BME280;10709;49.006;12.100;2023-03-25T08:54:56;48753.88;;;-146.00;66.61
21102;BME280;10709;49.006;12.100;2023-03-25T08:57:23;48767.59;;;-146.00;66.95
21102;BME280;10709;49.006;12.100;2023-03-25T08:59:49;48777.38;;;-146.00;67.81
21102;BME280;10709;49.006;12.100;2023-03-25T09:02:16;48746.03;;;-146.00;67.19
21102;BME280;10709;49.006;12.100;2023-03-25T09:04:42;48738.19;;;-146.00;67.07
21102;BME280;10709;49.006;12.100;2023-03-25T09:07:09;48755.84;;;-146.00;66.76
21102;BME280;10709;49.006;12.100;2023-03-25T09:09:39;48757.78;;;-146.00;66.65
21102;BME280;10709;49.006;12.100;2023-03-25T09:12:06;48738.19;;;-146.00;64.33
21102;BME280;10709;49.006;12.100;2023-03-25T09:14:33;48736.25;;;-146.00;64.56
21102;BME280;10709;49.006;12.100;2023-03-25T09:16:59;48732.31;;;-146.00;63.40
21102;BME280;10709;49.006;12.100;2023-03-25T09:19:26;48742.13;;;-146.00;64.04
21102;BME280;10709;49.006;12.100;2023-03-25T09:21:52;48726.44;;;-146.00;64.44
21102;BME280;10709;49.006;12.100;2023-03-25T09:24:19;48755.84;;;-146.00;64.40
21102;BME280;10709;49.006;12.100;2023-03-25T09:26:47;48757.78;;;-146.00;64.99
21102;BME280;10709;49.006;12.100;2023-03-25T09:29:14;48742.13;;;-146.00;65.00
21102;BME280;10709;49.006;12.100;2023-03-25T09:31:41;48755.84;;;-146.00;66.17
21102;BME280;10709;49.006;12.100;2023-03-25T09:34:08;48730.38;;;-146.00;65.41
21102;BME280;10709;49.006;12.100;2023-03-25T09:36:34;48757.78;;;-146.00;66.52
21102;BME280;10709;49.006;12.100;2023-03-25T09:39:01;48765.63;;;-146.00;66.48
21102;BME280;10709;49.006;12.100;2023-03-25T09:41:40;48763.66;;;-146.00;65.83
21102;BME280;10709;49.006;12.100;2023-03-25T09:44:21;48759.75;;;-146.00;65.79
21102;BME280;10709;49.006;12.100;2023-03-25T09:46:49;48753.88;;;-146.00;65.63
21102;BME280;10709;49.006;12.100;2023-03-25T09:49:19;48734.28;;;-146.00;65.19
21102;BME280;10709;49.006;12.100;2023-03-25T09:51:49;48746.03;;;-146.00;65.83
21102;BME280;10709;49.006;12.100;2023-03-25T09:54:24;48730.38;;;-146.00;64.35
21102;BME280;10709;49.006;12.100;2023-03-25T09:56:54;48773.47;;;-146.00;63.81
21102;BME280;10709;49.006;12.100;2023-03-25T09:59:24;48746.03;;;-146.00;63.36
21102;BME280;10709;49.006;12.100;2023-03-25T10:02:05;48763.66;;;-146.00;62.25
21102;BME280;10709;49.006;12.100;2023-03-25T10:08:01;48726.44;;;-146.00;60.30
21102;BME280;10709;49.006;12.100;2023-03-25T10:11:05;48757.78;;;-146.00;59.37
21102;BME280;10709;49.006;12.100;2023-03-25T10:13:49;48744.06;;;-146.00;58.99
21102;BME280;10709;49.006;12.100;2023-03-25T10:24:33;48773.47;;;-146.00;58.80
21102;BME280;10709;49.006;12.100;2023-03-25T10:29:55;48767.59;;;-146.00;58.05
21102;BME280;10709;49.006;12.100;2023-03-25T10:32:31;48730.38;;;-146.00;58.10
21102;BME280;10709;49.006;12.100;2023-03-25T10:35:02;48736.25;;;-146.00;58.53
21102;BME280;10709;49.006;12.100;2023-03-25T10:37:34;48734.28;;;-146.00;59.53
21102;BME280;10709;49.006;12.100;2023-03-25T10:40:21;48736.25;;;-146.00;60.19
21102;BME280;10709;49.006;12.100;2023-03-25T10:43:10;48753.88;;;-146.00;58.88
21102;BME280;10709;49.006;12.100;2023-03-25T10:45:40;48751.91;;;-146.00;59.41
21102;BME280;10709;49.006;12.100;2023-03-25T10:48:16;48714.69;;;-146.00;59.33
21102;BME280;10709;49.006;12.100;2023-03-25T10:50:46;48757.78;;;-146.00;59.99
21102;BME280;10709;49.006;12.100;2023-03-25T10:53:20;48738.19;;;-146.00;59.79
21102;BME280;10709;49.006;12.100;2023-03-25T10:55:48;48746.03;;;-146.00;60.48
21102;BME280;10709;49.006;12.100;2023-03-25T10:58:18;48763.66;;;-146.00;60.19
21102;BME280;10709;49.006;12.100;2023-03-25T11:00:46;48738.19;;;-146.00;60.22
21102;BME280;10709;49.006;12.100;2023-03-25T11:03:32;48759.75;;;-146.00;60.13
21102;BME280;10709;49.006;12.100;2023-03-25T11:05:59;48720.56;;;-146.00;59.77
21102;BME280;10709;49.006;12.100;2023-03-25T11:08:26;48757.78;;;-146.00;59.79
21102;BME280;10709;49.006;12.100;2023-03-25T11:10:53;48759.75;;;-146.00;60.29
21102;BME280;10709;49.006;12.100;2023-03-25T11:13:27;48732.31;;;-146.00;59.27
21102;BME280;10709;49.006;12.100;2023-03-25T11:16:00;48757.78;;;-146.00;58.86
21102;BME280;10709;49.006;12.100;2023-03-25T11:18:29;48765.63;;;-146.00;58.77
21102;BME280;10709;49.006;12.100;2023-03-25T11:21:05;48734.28;;;-146.00;57.44
21102;BME280;10709;49.006;12.100;2023-03-25T11:23:35;48769.53;;;-146.00;57.86
21102;BME280;10709;49.006;12.100;2023-03-25T11:26:10;48769.53;;;-146.00;56.22
21102;BME280;10709;49.006;12.100;2023-03-25T11:28:47;48732.31;;;-146.00;55.50
21102;BME280;10709;49.006;12.100;2023-03-25T11:31:19;48726.44;;;-146.00;56.08
21102;BME280;10709;49.006;12.100;2023-03-25T11:36:32;48746.03;;;-146.00;57.22
21102;BME280;10709;49.006;12.100;2023-03-25T11:39:08;48730.38;;;-146.00;59.62
21102;BME280;10709;49.006;12.100;2023-03-25T11:41:36;48773.47;;;-146.00;65.92
21102;BME280;10709;49.006;12.100;2023-03-25T11:44:04;48773.47;;;-146.00;68.30
21102;BME280;10709;49.006;12.100;2023-03-25T11:46:31;48753.88;;;-146.00;70.07
21102;BME280;10709;49.006;12.100;2023-03-25T11:49:09;48785.22;;;-146.00;69.88
21102;BME280;10709;49.006;12.100;2023-03-25T11:51:37;48781.31;;;-146.00;70.06
21102;BME280;10709;49.006;12.100;2023-03-25T11:54:07;48755.84;;;-146.00;70.59
21102;BME280;10709;49.006;12.100;2023-03-25T11:56:40;48777.38;;;-146.00;69.83
21102;BME280;10709;49.006;12.100;2023-03-25T11:59:21;48793.06;;;-146.00;68.68
21102;BME280;10709;49.006;12.100;2023-03-25T12:01:50;48732.31;;;-146.00;68.12
21102;BME280;10709;49.006;12.100;2023-03-25T12:04:23;48771.50;;;-146.00;69.63
21102;BME280;10709;49.006;12.100;2023-03-25T12:07:07;48783.25;;;-146.00;72.07
21102;BME280;10709;49.006;12.100;2023-03-25T12:09:34;48773.47;;;-146.00;73.73
21102;BME280;10709;49.006;12.100;2023-03-25T12:15:09;48793.06;;;-146.00;72.60
21102;BME280;10709;49.006;12.100;2023-03-25T12:26:08;48777.38;;;-146.00;70.91
21102;BME280;10709;49.006;12.100;2023-03-25T12:29:00;48800.88;;;-146.00;70.17
21102;BME280;10709;49.006;12.100;2023-03-25T12:32:07;48769.53;;;-146.00;68.10
21102;BME280;10709;49.006;12.100;2023-03-25T12:37:39;48767.59;;;-146.00;65.94
21102;BME280;10709;49.006;12.100;2023-03-25T12:43:04;48753.88;;;-146.00;66.00
21102;BME280;10709;49.006;12.100;2023-03-25T12:54:41;48761.72;;;-146.00;65.44
21102;BME280;10709;49.006;12.100;2023-03-25T13:05:44;48783.25;;;-146.00;65.83
21102;BME280;10709;49.006;12.100;2023-03-25T13:08:25;48773.47;;;-146.00;66.12
21102;BME280;10709;49.006;12.100;2023-03-25T13:11:04;48777.38;;;-146.00;67.92
21102;BME280;10709;49.006;12.100;2023-03-25T13:13:35;48765.63;;;-146.00;69.42
21102;BME280;10709;49.006;12.100;2023-03-25T13:16:07;48761.72;;;-146.00;73.00
21102;BME280;10709;49.006;12.100;2023-03-25T13:18:42;48840.06;;;-146.00;81.01
21102;BME280;10709;49.006;12.100;2023-03-25T13:23:47;49045.78;;;-146.00;89.84
21102;BME280;10709;49.006;12.100;2023-03-25T13:26:20;49024.22;;;-146.00;91.67
21102;BME280;10709;49.006;12.100;2023-03-25T13:28:59;49016.38;;;-146.00;93.19
21102;BME280;10709;49.006;12.100;2023-03-25T13:31:33;49037.94;;;-146.00;90.33
21102;BME280;10709;49.006;12.100;2023-03-25T13:34:12;49024.22;;;-146.00;90.61
21102;BME280;10709;49.006;12.100;2023-03-25T13:36:49;49039.88;;;-146.00;89.94
21102;BME280;10709;49.006;12.100;2023-03-25T13:39:26;49032.06;;;-146.00;89.79
21102;BME280;10709;49.006;12.100;2023-03-25T13:42:06;49035.97;;;-146.00;91.69
21102;BME280;10709;49.006;12.100;2023-03-25T13:44:39;49020.31;;;-146.00;88.66
21102;BME280;10709;49.006;12.100;2023-03-25T13:47:29;49041.84;;;-146.00;89.68
21102;BME280;10709;49.006;12.100;2023-03-25T13:50:02;49039.88;;;-146.00;88.03
21102;BME280;10709;49.006;12.100;2023-03-25T13:52:38;49024.22;;;-146.00;87.13
21102;BME280;10709;49.006;12.100;2023-03-25T13:55:15;49022.25;;;-146.00;86.41
21102;BME280;10709;49.006;12.100;2023-03-25T13:58:04;49051.66;;;-146.00;86.84
21102;BME280;10709;49.006;12.100;2023-03-25T14:03:18;49035.97;;;-146.00;87.10
21102;BME280;10709;49.006;12.100;2023-03-25T14:11:57;49012.47;;;-146.00;84.88